sensor_id;sensor_type;location;lat;lon;timestamp;temperature;humidity
3752;DHT22;50827;47.014;7.652;2023-12-22T00:00:11;9.20;99.90
3752;DHT22;50827;47.014;7.652;2023-12-22T00:02:37;9.20;99.90
3752;DHT22;50827;47.014;7.652;2023-12-22T00:05:04;9.20;99.90
3752;DHT22;50827;47.014;7.652;2023-12-22T00:07:31;9.10;99.90
3752;DHT22;50827;47.014;7.652;2023-12-22T00:09:58;9.20;99.90
3752;DHT22;50827;47.014;7.652;2023-12-22T00:12:24;9.10;99.90
3752;DHT22;50827;47.014;7.652;2023-12-22T00:14:51;9.00;99.90
3752;DHT22;50827;47.014;7.652;2023-12-22T00:17:18;8.90;99.90
3752;DHT22;50827;47.014;7.652;2023-12-22T00:19:44;8.90;99.90
3752;DHT22;50827;47.014;7.652;2023-12-22T00:22:11;8.90;99.90
3752;DHT22;50827;47.014;7.652;2023-12-22T00:24:38;8.90;99.90
3752;DHT22;50827;47.014;7.652;2023-12-22T00:27:05;8.90;99.90
3752;DHT22;50827;47.014;7.652;2023-12-22T00:29:32;8.90;99.90
3752;DHT22;50827;47.014;7.652;2023-12-22T00:32:02;8.90;99.90
3752;DHT22;50827;47.014;7.652;2023-12-22T00:34:29;8.90;99.90
3752;DHT22;50827;47.014;7.652;2023-12-22T00:36:56;8.80;99.90
3752;DHT22;50827;47.014;7.652;2023-12-22T00:39:31;8.90;99.90
3752;DHT22;50827;47.014;7.652;2023-12-22T00:42:01;8.90;99.90
3752;DHT22;50827;47.014;7.652;2023-12-22T00:44:30;8.90;99.90
3752;DHT22;50827;47.014;7.652;2023-12-22T00:46:59;8.90;99.90
3752;DHT22;50827;47.014;7.652;2023-12-22T00:49:26;8.90;99.90
3752;DHT22;50827;47.014;7.652;2023-12-22T00:52:01;8.90;99.90
3752;DHT22;50827;47.014;7.652;2023-12-22T00:54:31;9.00;99.90
3752;DHT22;50827;47.014;7.652;2023-12-22T00:57:01;9.00;99.90
3752;DHT22;50827;47.014;7.652;2023-12-22T00:59:32;9.00;99.90
3752;DHT22;50827;47.014;7.652;2023-12-22T01:02:02;9.00;99.90
3752;DHT22;50827;47.014;7.652;2023-12-22T01:04:28;9.10;99.90
3752;DHT22;50827;47.014;7.652;2023-12-22T01:06:55;9.00;99.90
3752;DHT22;50827;47.014;7.652;2023-12-22T01:09:22;9.00;99.90
3752;DHT22;50827;47.014;7.652;2023-12-22T01:11:49;9.00;99.90
3752;DHT22;50827;47.014;7.652;2023-12-22T01:14:15;9.00;99.90
3752;DHT22;50827;47.014;7.652;2023-12-22T01:16:42;9.10;99.90
3752;DHT22;50827;47.014;7.652;2023-12-22T01:19:09;9.10;99.90
3752;DHT22;50827;47.014;7.652;2023-12-22T01:21:36;9.00;99.90
3752;DHT22;50827;47.014;7.652;2023-12-22T01:24:03;9.00;99.90
3752;DHT22;50827;47.014;7.652;2023-12-22T01:26:30;9.00;99.90
3752;DHT22;50827;47.014;7.652;2023-12-22T01:28:56;9.00;99.90
3752;DHT22;50827;47.014;7.652;2023-12-22T01:31:23;8.90;99.90
3752;DHT22;50827;47.014;7.652;2023-12-22T01:33:50;9.00;99.90
3752;DHT22;50827;47.014;7.652;2023-12-22T01:36:16;9.00;99.90
3752;DHT22;50827;47.014;7.652;2023-12-22T01:38:43;8.90;99.90
3752;DHT22;50827;47.014;7.652;2023-12-22T01:41:10;8.90;99.90
3752;DHT22;50827;47.014;7.652;2023-12-22T01:43:36;8.90;99.90
3752;DHT22;50827;47.014;7.652;2023-12-22T01:46:06;8.90;99.90
3752;DHT22;50827;47.014;7.652;2023-12-22T01:48:36;8.90;99.90
3752;DHT22;50827;47.014;7.652;2023-12-22T01:51:04;8.90;99.90
3752;DHT22;50827;47.014;7.652;2023-12-22T01:53:31;8.90;99.90
3752;DHT22;50827;47.014;7.652;2023-12-22T01:56:00;8.90;99.90
3752;DHT22;50827;47.014;7.652;2023-12-22T01:58:29;8.90;99.90
3752;DHT22;50827;47.014;7.652;2023-12-22T02:00:56;8.90;99.90
3752;DHT22;50827;47.014;7.652;2023-12-22T02:03:23;8.90;99.90
3752;DHT22;50827;47.014;7.652;2023-12-22T02:05:50;9.00;99.90
3752;DHT22;50827;47.014;7.652;2023-12-22T02:08:18;9.00;99.90
3752;DHT22;50827;47.014;7.652;2023-12-22T02:10:45;9.00;99.90
3752;DHT22;50827;47.014;7.652;2023-12-22T02:13:12;9.00;99.90
3752;DHT22;50827;47.014;7.652;2023-12-22T02:15:39;9.00;99.90
3752;DHT22;50827;47.014;7.652;2023-12-22T02:18:25;9.00;99.90
3752;DHT22;50827;47.014;7.652;2023-12-22T02:20:53;9.00;99.90
3752;DHT22;50827;47.014;7.652;2023-12-22T02:23:20;8.90;99.90
3752;DHT22;50827;47.014;7.652;2023-12-22T02:25:51;8.90;99.90
3752;DHT22;50827;47.014;7.652;2023-12-22T02:28:24;8.90;99.90
3752;DHT22;50827;47.014;7.652;2023-12-22T02:31:22;8.90;99.90
3752;DHT22;50827;47.014;7.652;2023-12-22T02:33:54;8.90;99.90
3752;DHT22;50827;47.014;7.652;2023-12-22T02:36:22;8.90;99.90
3752;DHT22;50827;47.014;7.652;2023-12-22T02:38:51;8.80;99.90
3752;DHT22;50827;47.014;7.652;2023-12-22T02:41:20;8.80;99.90
3752;DHT22;50827;47.014;7.652;2023-12-22T02:43:47;8.80;99.90
3752;DHT22;50827;47.014;7.652;2023-12-22T02:46:14;8.70;99.90
3752;DHT22;50827;47.014;7.652;2023-12-22T02:48:41;8.70;99.90
3752;DHT22;50827;47.014;7.652;2023-12-22T02:51:08;8.70;99.90
3752;DHT22;50827;47.014;7.652;2023-12-22T02:53:35;8.70;99.90
3752;DHT22;50827;47.014;7.652;2023-12-22T02:56:01;8.70;99.90
3752;DHT22;50827;47.014;7.652;2023-12-22T02:58:32;8.70;99.90
3752;DHT22;50827;47.014;7.652;2023-12-22T03:01:00;8.70;99.90
3752;DHT22;50827;47.014;7.652;2023-12-22T03:03:27;8.70;99.90
3752;DHT22;50827;47.014;7.652;2023-12-22T03:05:54;8.70;99.90
3752;DHT22;50827;47.014;7.652;2023-12-22T03:08:21;8.70;99.90
3752;DHT22;50827;47.014;7.652;2023-12-22T03:10:47;8.70;99.90
3752;DHT22;50827;47.014;7.652;2023-12-22T03:13:14;8.70;99.90
3752;DHT22;50827;47.014;7.652;2023-12-22T03:15:41;8.70;99.90
3752;DHT22;50827;47.014;7.652;2023-12-22T03:18:07;8.70;99.90
3752;DHT22;50827;47.014;7.652;2023-12-22T03:20:34;8.70;99.90
3752;DHT22;50827;47.014;7.652;2023-12-22T03:23:01;8.70;99.90
3752;DHT22;50827;47.014;7.652;2023-12-22T03:25:28;8.70;99.90
3752;DHT22;50827;47.014;7.652;2023-12-22T03:27:54;8.70;99.90
3752;DHT22;50827;47.014;7.652;2023-12-22T03:30:21;8.60;99.90
3752;DHT22;50827;47.014;7.652;2023-12-22T03:32:48;8.60;99.90
3752;DHT22;50827;47.014;7.652;2023-12-22T03:35:15;8.60;99.90
3752;DHT22;50827;47.014;7.652;2023-12-22T03:37:41;8.60;99.90
3752;DHT22;50827;47.014;7.652;2023-12-22T03:40:08;8.60;99.90
3752;DHT22;50827;47.014;7.652;2023-12-22T03:42:36;8.50;99.90
3752;DHT22;50827;47.014;7.652;2023-12-22T03:45:03;8.50;99.90
3752;DHT22;50827;47.014;7.652;2023-12-22T03:47:31;8.60;99.90
3752;DHT22;50827;47.014;7.652;2023-12-22T03:49:57;8.60;99.90
3752;DHT22;50827;47.014;7.652;2023-12-22T03:52:24;8.60;99.90
3752;DHT22;50827;47.014;7.652;2023-12-22T03:54:51;8.50;99.90
3752;DHT22;50827;47.014;7.652;2023-12-22T03:57:18;8.50;99.90
3752;DHT22;50827;47.014;7.652;2023-12-22T03:59:44;8.60;99.90
3752;DHT22;50827;47.014;7.652;2023-12-22T04:02:11;8.50;99.90
3752;DHT22;50827;47.014;7.652;2023-12-22T04:04:38;8.60;99.90
3752;DHT22;50827;47.014;7.652;2023-12-22T04:07:05;8.60;99.90
3752;DHT22;50827;47.014;7.652;2023-12-22T04:09:32;8.60;99.90
3752;DHT22;50827;47.014;7.652;2023-12-22T04:11:59;8.50;99.90
3752;DHT22;50827;47.014;7.652;2023-12-22T04:14:25;8.60;99.90
3752;DHT22;50827;47.014;7.652;2023-12-22T04:16:52;8.50;99.90
3752;DHT22;50827;47.014;7.652;2023-12-22T04:19:22;8.50;99.90
3752;DHT22;50827;47.014;7.652;2023-12-22T04:21:49;8.50;99.90
3752;DHT22;50827;47.014;7.652;2023-12-22T04:24:25;8.50;99.90
3752;DHT22;50827;47.014;7.652;2023-12-22T04:26:51;8.50;99.90
3752;DHT22;50827;47.014;7.652;2023-12-22T04:29:18;8.50;99.90
3752;DHT22;50827;47.014;7.652;2023-12-22T04:31:45;8.40;99.90
3752;DHT22;50827;47.014;7.652;2023-12-22T04:34:15;8.40;99.90
3752;DHT22;50827;47.014;7.652;2023-12-22T04:36:42;8.50;99.90
3752;DHT22;50827;47.014;7.652;2023-12-22T04:39:09;8.50;99.90
3752;DHT22;50827;47.014;7.652;2023-12-22T04:41:36;8.50;99.90
3752;DHT22;50827;47.014;7.652;2023-12-22T04:44:02;8.50;99.90
3752;DHT22;50827;47.014;7.652;2023-12-22T04:46:30;8.40;99.90
3752;DHT22;50827;47.014;7.652;2023-12-22T04:48:57;8.40;99.90
3752;DHT22;50827;47.014;7.652;2023-12-22T04:51:24;8.40;99.90
3752;DHT22;50827;47.014;7.652;2023-12-22T04:53:50;8.40;99.90
3752;DHT22;50827;47.014;7.652;2023-12-22T04:56:17;8.50;99.90
3752;DHT22;50827;47.014;7.652;2023-12-22T04:58:44;8.50;99.90
3752;DHT22;50827;47.014;7.652;2023-12-22T05:01:11;8.50;99.90
3752;DHT22;50827;47.014;7.652;2023-12-22T05:03:37;8.50;99.90
3752;DHT22;50827;47.014;7.652;2023-12-22T05:06:04;8.50;99.90
3752;DHT22;50827;47.014;7.652;2023-12-22T05:08:31;8.50;99.90
3752;DHT22;50827;47.014;7.652;2023-12-22T05:10:58;8.50;99.90
3752;DHT22;50827;47.014;7.652;2023-12-22T05:13:24;8.50;99.90
3752;DHT22;50827;47.014;7.652;2023-12-22T05:15:51;8.50;99.90
3752;DHT22;50827;47.014;7.652;2023-12-22T05:18:18;8.40;99.90
3752;DHT22;50827;47.014;7.652;2023-12-22T05:20:45;8.40;99.90
3752;DHT22;50827;47.014;7.652;2023-12-22T05:23:12;8.40;99.90
3752;DHT22;50827;47.014;7.652;2023-12-22T05:25:39;8.40;99.90
3752;DHT22;50827;47.014;7.652;2023-12-22T05:28:07;8.40;99.90
3752;DHT22;50827;47.014;7.652;2023-12-22T05:30:33;8.40;99.90
3752;DHT22;50827;47.014;7.652;2023-12-22T05:33:00;8.40;99.90
3752;DHT22;50827;47.014;7.652;2023-12-22T05:35:27;8.40;99.90
3752;DHT22;50827;47.014;7.652;2023-12-22T05:37:54;8.40;99.90
3752;DHT22;50827;47.014;7.652;2023-12-22T05:40:20;8.40;99.90
3752;DHT22;50827;47.014;7.652;2023-12-22T05:42:47;8.30;99.90
3752;DHT22;50827;47.014;7.652;2023-12-22T05:45:14;8.30;99.90
3752;DHT22;50827;47.014;7.652;2023-12-22T05:47:41;8.30;99.90
3752;DHT22;50827;47.014;7.652;2023-12-22T05:50:08;8.20;99.90
3752;DHT22;50827;47.014;7.652;2023-12-22T05:52:36;8.20;99.90
3752;DHT22;50827;47.014;7.652;2023-12-22T05:55:03;8.20;99.90
3752;DHT22;50827;47.014;7.652;2023-12-22T05:57:30;8.20;99.90
3752;DHT22;50827;47.014;7.652;2023-12-22T05:59:57;8.20;99.90
3752;DHT22;50827;47.014;7.652;2023-12-22T06:02:25;8.20;99.90
3752;DHT22;50827;47.014;7.652;2023-12-22T06:04:55;8.20;99.90
3752;DHT22;50827;47.014;7.652;2023-12-22T06:07:21;8.20;99.90
3752;DHT22;50827;47.014;7.652;2023-12-22T06:09:51;8.20;99.90
3752;DHT22;50827;47.014;7.652;2023-12-22T06:12:19;8.20;99.90
3752;DHT22;50827;47.014;7.652;2023-12-22T06:14:46;8.10;99.90
3752;DHT22;50827;47.014;7.652;2023-12-22T06:17:14;8.10;99.90
3752;DHT22;50827;47.014;7.652;2023-12-22T06:19:41;8.10;99.90
3752;DHT22;50827;47.014;7.652;2023-12-22T06:22:08;8.10;99.90
3752;DHT22;50827;47.014;7.652;2023-12-22T06:24:35;8.00;99.90
3752;DHT22;50827;47.014;7.652;2023-12-22T06:27:02;8.00;99.90
3752;DHT22;50827;47.014;7.652;2023-12-22T06:29:29;8.00;99.90
3752;DHT22;50827;47.014;7.652;2023-12-22T06:31:57;8.10;99.90
3752;DHT22;50827;47.014;7.652;2023-12-22T06:34:24;8.10;99.90
3752;DHT22;50827;47.014;7.652;2023-12-22T06:36:52;8.00;99.90
3752;DHT22;50827;47.014;7.652;2023-12-22T06:39:19;8.00;99.90
3752;DHT22;50827;47.014;7.652;2023-12-22T06:41:47;8.00;99.90
3752;DHT22;50827;47.014;7.652;2023-12-22T06:44:14;8.00;99.90
3752;DHT22;50827;47.014;7.652;2023-12-22T06:46:40;8.00;99.90
3752;DHT22;50827;47.014;7.652;2023-12-22T06:49:07;8.00;99.90
3752;DHT22;50827;47.014;7.652;2023-12-22T06:51:34;8.00;99.90
3752;DHT22;50827;47.014;7.652;2023-12-22T06:54:03;8.00;99.90
3752;DHT22;50827;47.014;7.652;2023-12-22T06:56:35;7.90;99.90
3752;DHT22;50827;47.014;7.652;2023-12-22T06:59:02;7.90;99.90
3752;DHT22;50827;47.014;7.652;2023-12-22T07:01:35;7.90;99.90
3752;DHT22;50827;47.014;7.652;2023-12-22T07:04:04;8.00;99.90
3752;DHT22;50827;47.014;7.652;2023-12-22T07:06:32;8.10;99.90
3752;DHT22;50827;47.014;7.652;2023-12-22T07:11:43;8.00;99.90
3752;DHT22;50827;47.014;7.652;2023-12-22T07:14:10;8.00;99.90
3752;DHT22;50827;47.014;7.652;2023-12-22T07:16:38;8.00;99.90
3752;DHT22;50827;47.014;7.652;2023-12-22T07:19:05;8.00;99.90
3752;DHT22;50827;47.014;7.652;2023-12-22T07:21:32;8.00;99.90
3752;DHT22;50827;47.014;7.652;2023-12-22T07:23:59;8.00;99.90
3752;DHT22;50827;47.014;7.652;2023-12-22T07:26:27;8.00;99.90
3752;DHT22;50827;47.014;7.652;2023-12-22T07:28:54;7.90;99.90
3752;DHT22;50827;47.014;7.652;2023-12-22T07:31:21;8.00;99.90
3752;DHT22;50827;47.014;7.652;2023-12-22T07:33:48;8.00;99.90
3752;DHT22;50827;47.014;7.652;2023-12-22T07:36:14;7.90;99.90
3752;DHT22;50827;47.014;7.652;2023-12-22T07:38:41;7.90;99.90
3752;DHT22;50827;47.014;7.652;2023-12-22T07:41:08;8.00;99.90
3752;DHT22;50827;47.014;7.652;2023-12-22T07:43:38;8.00;99.90
3752;DHT22;50827;47.014;7.652;2023-12-22T07:46:04;8.00;99.90
3752;DHT22;50827;47.014;7.652;2023-12-22T07:48:31;8.10;99.90
3752;DHT22;50827;47.014;7.652;2023-12-22T07:50:58;8.00;99.90
3752;DHT22;50827;47.014;7.652;2023-12-22T07:53:25;8.00;99.90
3752;DHT22;50827;47.014;7.652;2023-12-22T07:55:52;8.00;99.90
3752;DHT22;50827;47.014;7.652;2023-12-22T07:58:18;8.00;99.90
3752;DHT22;50827;47.014;7.652;2023-12-22T08:00:46;8.00;99.90
3752;DHT22;50827;47.014;7.652;2023-12-22T08:03:12;8.00;99.90
3752;DHT22;50827;47.014;7.652;2023-12-22T08:05:39;8.00;99.90
3752;DHT22;50827;47.014;7.652;2023-12-22T08:08:06;8.00;99.90
3752;DHT22;50827;47.014;7.652;2023-12-22T08:10:33;8.10;99.90
3752;DHT22;50827;47.014;7.652;2023-12-22T08:13:00;8.10;99.90
3752;DHT22;50827;47.014;7.652;2023-12-22T08:15:26;8.10;99.90
3752;DHT22;50827;47.014;7.652;2023-12-22T08:18:02;8.10;99.90
3752;DHT22;50827;47.014;7.652;2023-12-22T08:20:29;8.10;99.90
3752;DHT22;50827;47.014;7.652;2023-12-22T08:23:02;8.10;99.90
3752;DHT22;50827;47.014;7.652;2023-12-22T08:25:35;8.10;99.90
3752;DHT22;50827;47.014;7.652;2023-12-22T08:28:03;8.10;99.90
3752;DHT22;50827;47.014;7.652;2023-12-22T08:30:30;8.10;99.90
3752;DHT22;50827;47.014;7.652;2023-12-22T08:32:56;8.10;99.90
3752;DHT22;50827;47.014;7.652;2023-12-22T08:35:23;8.20;99.90
3752;DHT22;50827;47.014;7.652;2023-12-22T08:37:50;8.10;99.90
3752;DHT22;50827;47.014;7.652;2023-12-22T08:40:17;8.10;99.90
3752;DHT22;50827;47.014;7.652;2023-12-22T08:42:44;8.10;99.90
3752;DHT22;50827;47.014;7.652;2023-12-22T08:45:11;8.10;99.90
3752;DHT22;50827;47.014;7.652;2023-12-22T08:47:37;8.00;99.90
3752;DHT22;50827;47.014;7.652;2023-12-22T08:50:05;8.10;99.90
3752;DHT22;50827;47.014;7.652;2023-12-22T08:52:34;8.00;99.90
3752;DHT22;50827;47.014;7.652;2023-12-22T08:55:01;8.10;99.90
3752;DHT22;50827;47.014;7.652;2023-12-22T08:57:28;8.00;99.90
3752;DHT22;50827;47.014;7.652;2023-12-22T08:59:55;8.00;99.90
3752;DHT22;50827;47.014;7.652;2023-12-22T09:02:22;8.00;99.90
3752;DHT22;50827;47.014;7.652;2023-12-22T09:04:48;8.00;99.90
3752;DHT22;50827;47.014;7.652;2023-12-22T09:07:15;8.00;99.90
3752;DHT22;50827;47.014;7.652;2023-12-22T09:09:42;8.00;99.90
3752;DHT22;50827;47.014;7.652;2023-12-22T09:12:09;8.00;99.90
3752;DHT22;50827;47.014;7.652;2023-12-22T09:14:35;7.90;99.90
3752;DHT22;50827;47.014;7.652;2023-12-22T09:17:02;8.00;99.90
3752;DHT22;50827;47.014;7.652;2023-12-22T09:19:32;7.90;99.90
3752;DHT22;50827;47.014;7.652;2023-12-22T09:22:02;8.00;99.90
3752;DHT22;50827;47.014;7.652;2023-12-22T09:24:29;7.90;99.90
3752;DHT22;50827;47.014;7.652;2023-12-22T09:26:56;8.00;99.90
3752;DHT22;50827;47.014;7.652;2023-12-22T09:29:30;8.00;99.90
3752;DHT22;50827;47.014;7.652;2023-12-22T09:32:00;8.00;99.90
3752;DHT22;50827;47.014;7.652;2023-12-22T09:34:27;8.00;99.90
3752;DHT22;50827;47.014;7.652;2023-12-22T09:36:54;8.00;99.90
3752;DHT22;50827;47.014;7.652;2023-12-22T09:39:21;8.00;99.90
3752;DHT22;50827;47.014;7.652;2023-12-22T09:41:49;8.00;99.90
3752;DHT22;50827;47.014;7.652;2023-12-22T09:44:20;8.00;99.90
3752;DHT22;50827;47.014;7.652;2023-12-22T09:46:48;8.00;99.90
3752;DHT22;50827;47.014;7.652;2023-12-22T09:49:20;8.00;99.90
3752;DHT22;50827;47.014;7.652;2023-12-22T09:51:49;8.10;99.90
3752;DHT22;50827;47.014;7.652;2023-12-22T09:54:17;8.10;99.90
3752;DHT22;50827;47.014;7.652;2023-12-22T09:56:45;8.10;99.90
3752;DHT22;50827;47.014;7.652;2023-12-22T09:59:13;8.10;99.90
3752;DHT22;50827;47.014;7.652;2023-12-22T10:01:43;8.10;99.90
3752;DHT22;50827;47.014;7.652;2023-12-22T10:04:13;8.10;99.90
3752;DHT22;50827;47.014;7.652;2023-12-22T10:06:41;8.20;99.90
3752;DHT22;50827;47.014;7.652;2023-12-22T10:09:08;8.20;99.90
3752;DHT22;50827;47.014;7.652;2023-12-22T10:11:38;8.20;99.90
3752;DHT22;50827;47.014;7.652;2023-12-22T10:14:06;8.10;99.90
3752;DHT22;50827;47.014;7.652;2023-12-22T10:16:35;8.00;99.90
3752;DHT22;50827;47.014;7.652;2023-12-22T10:19:05;8.00;99.90
3752;DHT22;50827;47.014;7.652;2023-12-22T10:21:36;8.00;99.90
3752;DHT22;50827;47.014;7.652;2023-12-22T10:24:02;8.00;99.90
3752;DHT22;50827;47.014;7.652;2023-12-22T10:26:32;8.00;99.90
3752;DHT22;50827;47.014;7.652;2023-12-22T10:28:59;8.00;99.90
3752;DHT22;50827;47.014;7.652;2023-12-22T10:31:26;8.00;99.90
3752;DHT22;50827;47.014;7.652;2023-12-22T10:33:53;8.00;99.90
3752;DHT22;50827;47.014;7.652;2023-12-22T10:36:20;8.00;99.90
3752;DHT22;50827;47.014;7.652;2023-12-22T10:38:47;8.00;99.90
3752;DHT22;50827;47.014;7.652;2023-12-22T10:41:13;7.90;99.90
3752;DHT22;50827;47.014;7.652;2023-12-22T10:43:40;8.00;99.90
3752;DHT22;50827;47.014;7.652;2023-12-22T10:46:08;8.10;99.90
3752;DHT22;50827;47.014;7.652;2023-12-22T10:48:37;8.10;99.90
3752;DHT22;50827;47.014;7.652;2023-12-22T10:51:09;8.10;99.90
3752;DHT22;50827;47.014;7.652;2023-12-22T10:53:39;8.20;99.90
3752;DHT22;50827;47.014;7.652;2023-12-22T10:56:06;8.10;99.90
3752;DHT22;50827;47.014;7.652;2023-12-22T10:58:33;8.20;99.90
3752;DHT22;50827;47.014;7.652;2023-12-22T11:01:02;8.10;99.90
3752;DHT22;50827;47.014;7.652;2023-12-22T11:03:31;8.20;99.90
3752;DHT22;50827;47.014;7.652;2023-12-22T11:06:02;8.20;99.90
3752;DHT22;50827;47.014;7.652;2023-12-22T11:08:31;8.20;99.90
3752;DHT22;50827;47.014;7.652;2023-12-22T11:11:06;8.20;99.90
3752;DHT22;50827;47.014;7.652;2023-12-22T11:13:35;8.30;99.90
3752;DHT22;50827;47.014;7.652;2023-12-22T11:16:02;8.30;99.90
3752;DHT22;50827;47.014;7.652;2023-12-22T11:18:30;8.30;99.90
3752;DHT22;50827;47.014;7.652;2023-12-22T11:20:57;8.40;99.90
3752;DHT22;50827;47.014;7.652;2023-12-22T11:23:24;8.40;99.90
3752;DHT22;50827;47.014;7.652;2023-12-22T11:25:52;8.50;99.90
3752;DHT22;50827;47.014;7.652;2023-12-22T11:28:21;8.50;99.90
3752;DHT22;50827;47.014;7.652;2023-12-22T11:30:50;8.50;99.90
3752;DHT22;50827;47.014;7.652;2023-12-22T11:33:25;8.50;99.90
3752;DHT22;50827;47.014;7.652;2023-12-22T11:35:55;8.50;99.90
3752;DHT22;50827;47.014;7.652;2023-12-22T11:38:22;8.50;99.90
3752;DHT22;50827;47.014;7.652;2023-12-22T11:40:51;8.40;99.90
3752;DHT22;50827;47.014;7.652;2023-12-22T11:43:19;8.50;99.90
3752;DHT22;50827;47.014;7.652;2023-12-22T11:45:50;8.70;99.90
3752;DHT22;50827;47.014;7.652;2023-12-22T11:48:17;8.70;99.90
3752;DHT22;50827;47.014;7.652;2023-12-22T11:50:44;8.70;99.90
3752;DHT22;50827;47.014;7.652;2023-12-22T11:53:21;8.70;99.90
3752;DHT22;50827;47.014;7.652;2023-12-22T11:56:05;8.70;99.90
3752;DHT22;50827;47.014;7.652;2023-12-22T11:58:36;8.60;99.90
3752;DHT22;50827;47.014;7.652;2023-12-22T12:01:06;8.70;99.90
3752;DHT22;50827;47.014;7.652;2023-12-22T12:03:36;8.60;99.90
3752;DHT22;50827;47.014;7.652;2023-12-22T12:06:13;8.70;99.90
3752;DHT22;50827;47.014;7.652;2023-12-22T12:08:41;8.70;99.90
3752;DHT22;50827;47.014;7.652;2023-12-22T12:11:08;8.70;99.90
3752;DHT22;50827;47.014;7.652;2023-12-22T12:13:39;8.70;99.90
3752;DHT22;50827;47.014;7.652;2023-12-22T12:16:08;8.70;99.90
3752;DHT22;50827;47.014;7.652;2023-12-22T12:18:35;8.80;99.90
3752;DHT22;50827;47.014;7.652;2023-12-22T12:21:02;8.80;99.90
3752;DHT22;50827;47.014;7.652;2023-12-22T12:23:29;8.80;99.90
3752;DHT22;50827;47.014;7.652;2023-12-22T12:25:56;8.70;99.90
3752;DHT22;50827;47.014;7.652;2023-12-22T12:28:29;8.70;99.90
3752;DHT22;50827;47.014;7.652;2023-12-22T12:31:06;8.70;99.90
3752;DHT22;50827;47.014;7.652;2023-12-22T12:33:37;8.70;99.90
3752;DHT22;50827;47.014;7.652;2023-12-22T12:36:04;8.60;99.90
3752;DHT22;50827;47.014;7.652;2023-12-22T12:41:29;8.60;99.90
3752;DHT22;50827;47.014;7.652;2023-12-22T12:43:56;8.60;99.90
3752;DHT22;50827;47.014;7.652;2023-12-22T12:46:42;8.60;99.90
3752;DHT22;50827;47.014;7.652;2023-12-22T12:49:11;8.60;99.90
3752;DHT22;50827;47.014;7.652;2023-12-22T12:51:40;8.50;99.90
3752;DHT22;50827;47.014;7.652;2023-12-22T12:54:08;8.50;99.90
3752;DHT22;50827;47.014;7.652;2023-12-22T12:56:40;8.50;99.90
3752;DHT22;50827;47.014;7.652;2023-12-22T12:59:10;8.50;99.90
3752;DHT22;50827;47.014;7.652;2023-12-22T13:01:41;8.60;99.90
3752;DHT22;50827;47.014;7.652;2023-12-22T13:04:09;8.50;99.90
3752;DHT22;50827;47.014;7.652;2023-12-22T13:06:43;8.50;99.90
3752;DHT22;50827;47.014;7.652;2023-12-22T13:09:10;8.50;99.90
3752;DHT22;50827;47.014;7.652;2023-12-22T13:11:37;8.50;99.90
3752;DHT22;50827;47.014;7.652;2023-12-22T13:14:06;8.40;99.90
3752;DHT22;50827;47.014;7.652;2023-12-22T13:16:34;8.40;99.90
3752;DHT22;50827;47.014;7.652;2023-12-22T13:19:02;8.50;99.90
3752;DHT22;50827;47.014;7.652;2023-12-22T13:21:29;8.40;99.90
3752;DHT22;50827;47.014;7.652;2023-12-22T13:24:16;8.50;99.90
3752;DHT22;50827;47.014;7.652;2023-12-22T13:26:44;8.50;99.90
3752;DHT22;50827;47.014;7.652;2023-12-22T13:29:12;8.50;99.90
3752;DHT22;50827;47.014;7.652;2023-12-22T13:31:41;8.50;99.90
3752;DHT22;50827;47.014;7.652;2023-12-22T13:34:10;8.50;99.90
3752;DHT22;50827;47.014;7.652;2023-12-22T13:36:37;8.60;99.90
3752;DHT22;50827;47.014;7.652;2023-12-22T13:39:05;8.60;99.90
3752;DHT22;50827;47.014;7.652;2023-12-22T13:41:38;8.60;99.90
3752;DHT22;50827;47.014;7.652;2023-12-22T13:44:07;8.50;99.90
3752;DHT22;50827;47.014;7.652;2023-12-22T13:46:34;8.50;99.90
3752;DHT22;50827;47.014;7.652;2023-12-22T13:49:02;8.60;99.90
3752;DHT22;50827;47.014;7.652;2023-12-22T13:51:43;8.60;99.90
3752;DHT22;50827;47.014;7.652;2023-12-22T13:54:11;8.50;99.90
3752;DHT22;50827;47.014;7.652;2023-12-22T13:56:39;8.50;99.90
3752;DHT22;50827;47.014;7.652;2023-12-22T13:59:10;8.50;99.90
3752;DHT22;50827;47.014;7.652;2023-12-22T14:01:38;8.50;99.90
3752;DHT22;50827;47.014;7.652;2023-12-22T14:04:04;8.50;99.90
3752;DHT22;50827;47.014;7.652;2023-12-22T14:06:31;8.50;99.90
3752;DHT22;50827;47.014;7.652;2023-12-22T14:08:58;8.50;99.90
3752;DHT22;50827;47.014;7.652;2023-12-22T14:11:25;8.60;99.90
3752;DHT22;50827;47.014;7.652;2023-12-22T14:13:55;8.60;99.90
3752;DHT22;50827;47.014;7.652;2023-12-22T14:16:26;8.50;99.90
3752;DHT22;50827;47.014;7.652;2023-12-22T14:18:55;8.50;99.90
3752;DHT22;50827;47.014;7.652;2023-12-22T14:21:25;8.50;99.90
3752;DHT22;50827;47.014;7.652;2023-12-22T14:23:55;8.60;99.90
3752;DHT22;50827;47.014;7.652;2023-12-22T14:26:25;8.50;99.90
3752;DHT22;50827;47.014;7.652;2023-12-22T14:28:54;8.60;99.90
3752;DHT22;50827;47.014;7.652;2023-12-22T14:31:21;8.50;99.90
3752;DHT22;50827;47.014;7.652;2023-12-22T14:33:58;8.60;99.90
3752;DHT22;50827;47.014;7.652;2023-12-22T14:36:29;8.60;99.90
3752;DHT22;50827;47.014;7.652;2023-12-22T14:38:59;8.60;99.90
3752;DHT22;50827;47.014;7.652;2023-12-22T14:41:29;8.60;99.90
3752;DHT22;50827;47.014;7.652;2023-12-22T14:44:01;8.50;99.90
3752;DHT22;50827;47.014;7.652;2023-12-22T14:46:29;8.60;99.90
3752;DHT22;50827;47.014;7.652;2023-12-22T14:49:34;8.60;99.90
3752;DHT22;50827;47.014;7.652;2023-12-22T14:52:01;8.60;99.90
3752;DHT22;50827;47.014;7.652;2023-12-22T14:54:31;8.60;99.90
3752;DHT22;50827;47.014;7.652;2023-12-22T14:57:01;8.60;99.90
3752;DHT22;50827;47.014;7.652;2023-12-22T14:59:28;8.60;99.90
3752;DHT22;50827;47.014;7.652;2023-12-22T15:01:56;8.70;99.90
3752;DHT22;50827;47.014;7.652;2023-12-22T15:04:23;8.60;99.90
3752;DHT22;50827;47.014;7.652;2023-12-22T15:06:52;8.70;99.90
3752;DHT22;50827;47.014;7.652;2023-12-22T15:09:27;8.70;99.90
3752;DHT22;50827;47.014;7.652;2023-12-22T15:11:54;8.70;99.90
3752;DHT22;50827;47.014;7.652;2023-12-22T15:14:22;8.60;99.90
3752;DHT22;50827;47.014;7.652;2023-12-22T15:16:49;8.70;99.90
3752;DHT22;50827;47.014;7.652;2023-12-22T15:19:20;8.70;99.90
3752;DHT22;50827;47.014;7.652;2023-12-22T15:21:52;8.70;99.90
3752;DHT22;50827;47.014;7.652;2023-12-22T15:24:22;8.70;99.90
3752;DHT22;50827;47.014;7.652;2023-12-22T15:26:53;8.70;99.90
3752;DHT22;50827;47.014;7.652;2023-12-22T15:29:25;8.60;99.90
3752;DHT22;50827;47.014;7.652;2023-12-22T15:31:58;8.70;99.90
3752;DHT22;50827;47.014;7.652;2023-12-22T15:34:27;8.70;99.90
3752;DHT22;50827;47.014;7.652;2023-12-22T15:36:54;8.70;99.90
3752;DHT22;50827;47.014;7.652;2023-12-22T15:39:25;8.70;99.90
3752;DHT22;50827;47.014;7.652;2023-12-22T15:41:54;8.70;99.90
3752;DHT22;50827;47.014;7.652;2023-12-22T15:44:21;8.70;99.90
3752;DHT22;50827;47.014;7.652;2023-12-22T15:46:56;8.70;99.90
3752;DHT22;50827;47.014;7.652;2023-12-22T15:49:24;8.70;99.90
3752;DHT22;50827;47.014;7.652;2023-12-22T15:51:51;8.70;99.90
3752;DHT22;50827;47.014;7.652;2023-12-22T15:54:25;8.70;99.90
3752;DHT22;50827;47.014;7.652;2023-12-22T15:56:51;8.70;99.90
3752;DHT22;50827;47.014;7.652;2023-12-22T15:59:18;8.80;99.90
3752;DHT22;50827;47.014;7.652;2023-12-22T16:01:52;8.80;99.90
3752;DHT22;50827;47.014;7.652;2023-12-22T16:04:22;8.80;99.90
3752;DHT22;50827;47.014;7.652;2023-12-22T16:06:52;8.80;99.90
3752;DHT22;50827;47.014;7.652;2023-12-22T16:09:21;8.80;99.90
3752;DHT22;50827;47.014;7.652;2023-12-22T16:11:48;8.70;99.90
3752;DHT22;50827;47.014;7.652;2023-12-22T16:14:14;8.80;99.90